sensor_id;sensor_type;location;lat;lon;timestamp;pressure;altitude;pressure_sealevel;temperature;humidity
37792;BME280;29527;55.766;37.570;2023-04-27T00:00:22;99081.75;;;10.46;64.60
37792;BME280;29527;55.766;37.570;2023-04-27T00:02:48;99074.56;;;10.47;64.47
37792;BME280;29527;55.766;37.570;2023-04-27T00:05:13;99076.53;;;10.45;65.08
37792;BME280;29527;55.766;37.570;2023-04-27T00:07:39;99079.38;;;10.43;64.77
37792;BME280;29527;55.766;37.570;2023-04-27T00:10:05;99088.38;;;10.42;65.19
37792;BME280;29527;55.766;37.570;2023-04-27T00:12:31;99085.97;;;10.39;65.24
37792;BME280;29527;55.766;37.570;2023-04-27T00:14:56;99082.31;;;10.40;64.77
37792;BME280;29527;55.766;37.570;2023-04-27T00:17:22;99075.78;;;10.33;64.55
37792;BME280;29527;55.766;37.570;2023-04-27T00:19:47;99079.91;;;10.37;65.14
37792;BME280;29527;55.766;37.570;2023-04-27T00:22:13;99083.28;;;10.39;65.29
37792;BME280;29527;55.766;37.570;2023-04-27T00:24:38;99091.31;;;10.39;64.79
37792;BME280;29527;55.766;37.570;2023-04-27T00:27:06;99088.75;;;10.38;64.91
37792;BME280;29527;55.766;37.570;2023-04-27T00:29:32;99093.28;;;10.37;64.87
37792;BME280;29527;55.766;37.570;2023-04-27T00:31:57;99062.56;;;10.22;64.94
37792;BME280;29527;55.766;37.570;2023-04-27T00:34:23;99088.75;;;10.38;65.13
37792;BME280;29527;55.766;37.570;2023-04-27T00:36:48;99092.41;;;10.37;65.06
37792;BME280;29527;55.766;37.570;2023-04-27T00:39:14;99094.41;;;10.34;65.28
37792;BME280;29527;55.766;37.570;2023-04-27T00:41:41;99089.75;;;10.37;65.20
37792;BME280;29527;55.766;37.570;2023-04-27T00:44:06;99093.53;;;10.34;64.86
37792;BME280;29527;55.766;37.570;2023-04-27T00:46:32;99097.78;;;10.37;64.75
37792;BME280;29527;55.766;37.570;2023-04-27T00:48:58;99082.28;;;10.30;64.80
37792;BME280;29527;55.766;37.570;2023-04-27T00:51:25;99092.72;;;10.33;65.13
37792;BME280;29527;55.766;37.570;2023-04-27T00:53:52;99094.81;;;10.30;65.19
37792;BME280;29527;55.766;37.570;2023-04-27T00:56:19;99095.78;;;10.29;65.43
37792;BME280;29527;55.766;37.570;2023-04-27T00:58:44;99097.75;;;10.27;65.51
37792;BME280;29527;55.766;37.570;2023-04-27T01:01:10;99094.38;;;10.25;65.69
37792;BME280;29527;55.766;37.570;2023-04-27T01:03:36;99094.38;;;10.25;65.83
37792;BME280;29527;55.766;37.570;2023-04-27T01:06:01;99079.88;;;10.17;65.47
37792;BME280;29527;55.766;37.570;2023-04-27T01:08:28;99096.06;;;10.26;65.52
37792;BME280;29527;55.766;37.570;2023-04-27T01:10:53;99086.25;;;10.26;65.65
37792;BME280;29527;55.766;37.570;2023-04-27T01:13:19;99085.38;;;10.26;65.60
37792;BME280;29527;55.766;37.570;2023-04-27T01:15:44;99087.34;;;10.24;66.27
37792;BME280;29527;55.766;37.570;2023-04-27T01:18:10;99087.34;;;10.24;66.31
37792;BME280;29527;55.766;37.570;2023-04-27T01:20:36;99088.19;;;10.24;66.03
37792;BME280;29527;55.766;37.570;2023-04-27T01:23:02;99090.84;;;10.24;66.25
37792;BME280;29527;55.766;37.570;2023-04-27T01:25:28;99091.59;;;10.26;66.24
37792;BME280;29527;55.766;37.570;2023-04-27T01:27:54;99097.47;;;10.30;65.86
37792;BME280;29527;55.766;37.570;2023-04-27T01:30:19;99086.50;;;10.33;65.25
37792;BME280;29527;55.766;37.570;2023-04-27T01:32:47;99087.19;;;10.35;65.09
37792;BME280;29527;55.766;37.570;2023-04-27T01:35:13;99086.09;;;10.38;64.61
37792;BME280;29527;55.766;37.570;2023-04-27T01:37:39;99087.38;;;10.43;64.78
37792;BME280;29527;55.766;37.570;2023-04-27T01:40:05;99066.66;;;10.26;65.29
37792;BME280;29527;55.766;37.570;2023-04-27T01:42:32;99089.75;;;10.37;65.17
37792;BME280;29527;55.766;37.570;2023-04-27T01:44:57;99083.69;;;10.34;65.30
37792;BME280;29527;55.766;37.570;2023-04-27T01:47:25;99090.16;;;10.32;65.20
37792;BME280;29527;55.766;37.570;2023-04-27T01:49:51;99091.31;;;10.29;65.51
37792;BME280;29527;55.766;37.570;2023-04-27T01:52:16;99105.94;;;10.25;65.48
37792;BME280;29527;55.766;37.570;2023-04-27T01:54:42;99099.03;;;10.23;65.84
37792;BME280;29527;55.766;37.570;2023-04-27T01:57:08;99104.38;;;10.23;65.66
37792;BME280;29527;55.766;37.570;2023-04-27T01:59:33;99103.53;;;10.22;65.55
37792;BME280;29527;55.766;37.570;2023-04-27T02:01:59;99093.97;;;10.19;66.15
37792;BME280;29527;55.766;37.570;2023-04-27T02:04:24;99097.47;;;10.20;65.87
37792;BME280;29527;55.766;37.570;2023-04-27T02:06:50;99093.09;;;10.19;66.06
37792;BME280;29527;55.766;37.570;2023-04-27T02:09:15;99097.63;;;10.18;65.78
37792;BME280;29527;55.766;37.570;2023-04-27T02:11:41;99102.41;;;10.15;65.83
37792;BME280;29527;55.766;37.570;2023-04-27T02:14:07;99114.38;;;10.20;65.83
37792;BME280;29527;55.766;37.570;2023-04-27T02:16:52;99098.34;;;10.20;65.64
37792;BME280;29527;55.766;37.570;2023-04-27T02:19:17;99112.84;;;10.28;65.81
37792;BME280;29527;55.766;37.570;2023-04-27T02:21:43;99108.47;;;10.27;65.74
37792;BME280;29527;55.766;37.570;2023-04-27T02:24:08;99122.25;;;10.32;65.72
37792;BME280;29527;55.766;37.570;2023-04-27T02:26:34;99132.69;;;10.35;65.96
37792;BME280;29527;55.766;37.570;2023-04-27T02:29:00;99128.78;;;10.39;65.42
37792;BME280;29527;55.766;37.570;2023-04-27T02:31:27;99124.41;;;10.38;65.55
37792;BME280;29527;55.766;37.570;2023-04-27T02:33:52;99109.59;;;10.34;65.03
37792;BME280;29527;55.766;37.570;2023-04-27T02:36:17;99129.63;;;10.50;65.44
37792;BME280;29527;55.766;37.570;2023-04-27T02:38:43;99138.09;;;10.55;65.17
37792;BME280;29527;55.766;37.570;2023-04-27T02:41:09;99148.25;;;10.61;65.09
37792;BME280;29527;55.766;37.570;2023-04-27T02:43:34;99135.13;;;10.68;64.39
37792;BME280;29527;55.766;37.570;2023-04-27T02:46:03;99147.38;;;10.80;64.56
37792;BME280;29527;55.766;37.570;2023-04-27T02:48:32;99138.91;;;10.85;64.37
37792;BME280;29527;55.766;37.570;2023-04-27T02:50:57;99119.63;;;10.71;64.04
37792;BME280;29527;55.766;37.570;2023-04-27T02:53:23;99139.75;;;10.95;64.23
37792;BME280;29527;55.766;37.570;2023-04-27T02:55:49;99139.75;;;11.05;64.27
37792;BME280;29527;55.766;37.570;2023-04-27T02:58:15;99125.25;;;10.98;64.11
37792;BME280;29527;55.766;37.570;2023-04-27T03:00:42;99129.72;;;11.07;63.33
37792;BME280;29527;55.766;37.570;2023-04-27T03:03:08;99155.75;;;11.34;63.45
37792;BME280;29527;55.766;37.570;2023-04-27T03:05:36;99151.19;;;11.45;63.06
37792;BME280;29527;55.766;37.570;2023-04-27T03:08:02;99137.94;;;11.43;62.91
37792;BME280;29527;55.766;37.570;2023-04-27T03:10:28;99155.50;;;11.66;62.71
37792;BME280;29527;55.766;37.570;2023-04-27T03:12:53;99158.69;;;11.79;62.28
37792;BME280;29527;55.766;37.570;2023-04-27T03:15:19;99169.06;;;11.92;61.92
37792;BME280;29527;55.766;37.570;2023-04-27T03:17:45;99157.50;;;12.01;61.76
37792;BME280;29527;55.766;37.570;2023-04-27T03:20:11;99165.91;;;12.06;61.65
37792;BME280;29527;55.766;37.570;2023-04-27T03:22:37;99165.88;;;12.16;61.31
37792;BME280;29527;55.766;37.570;2023-04-27T03:25:03;99160.13;;;12.29;61.18
37792;BME280;29527;55.766;37.570;2023-04-27T03:27:30;99163.13;;;12.44;59.91
37792;BME280;29527;55.766;37.570;2023-04-27T03:29:55;99159.94;;;12.59;59.06
37792;BME280;29527;55.766;37.570;2023-04-27T03:32:21;99158.59;;;12.81;58.93
37792;BME280;29527;55.766;37.570;2023-04-27T03:34:46;99156.53;;;12.93;58.20
37792;BME280;29527;55.766;37.570;2023-04-27T03:37:12;99172.31;;;13.14;58.75
37792;BME280;29527;55.766;37.570;2023-04-27T03:39:37;99173.03;;;13.43;56.22
37792;BME280;29527;55.766;37.570;2023-04-27T03:42:03;99172.28;;;13.93;55.95
37792;BME280;29527;55.766;37.570;2023-04-27T03:44:29;99182.13;;;15.04;53.68
37792;BME280;29527;55.766;37.570;2023-04-27T03:46:58;99183.25;;;16.47;48.57
37792;BME280;29527;55.766;37.570;2023-04-27T03:49:24;99184.38;;;17.91;44.84
37792;BME280;29527;55.766;37.570;2023-04-27T03:51:50;99184.38;;;19.24;41.96
37792;BME280;29527;55.766;37.570;2023-04-27T03:54:16;99177.75;;;20.39;38.45
37792;BME280;29527;55.766;37.570;2023-04-27T03:56:41;99180.84;;;21.31;37.02
37792;BME280;29527;55.766;37.570;2023-04-27T03:59:08;99174.75;;;22.29;35.02
37792;BME280;29527;55.766;37.570;2023-04-27T04:01:34;99178.06;;;23.08;33.84
37792;BME280;29527;55.766;37.570;2023-04-27T04:04:00;99173.16;;;23.87;31.50
37792;BME280;29527;55.766;37.570;2023-04-27T04:06:26;99187.13;;;24.96;30.13
37792;BME280;29527;55.766;37.570;2023-04-27T04:08:52;99188.66;;;25.70;28.57
37792;BME280;29527;55.766;37.570;2023-04-27T04:11:18;99183.13;;;26.17;27.83
37792;BME280;29527;55.766;37.570;2023-04-27T04:13:43;99174.03;;;26.87;26.55
37792;BME280;29527;55.766;37.570;2023-04-27T04:16:09;99185.56;;;27.52;25.62
37792;BME280;29527;55.766;37.570;2023-04-27T04:18:35;99167.84;;;27.82;25.53
37792;BME280;29527;55.766;37.570;2023-04-27T04:21:02;99178.53;;;28.45;24.21
37792;BME280;29527;55.766;37.570;2023-04-27T04:23:27;99184.06;;;29.33;23.13
37792;BME280;29527;55.766;37.570;2023-04-27T04:25:54;99195.06;;;30.14;21.98
37792;BME280;29527;55.766;37.570;2023-04-27T04:28:21;99196.66;;;30.78;20.67
37792;BME280;29527;55.766;37.570;2023-04-27T04:30:47;99185.94;;;31.39;19.75
37792;BME280;29527;55.766;37.570;2023-04-27T04:33:13;99191.69;;;31.89;19.57
37792;BME280;29527;55.766;37.570;2023-04-27T04:35:39;99198.09;;;32.50;18.66
37792;BME280;29527;55.766;37.570;2023-04-27T04:38:06;99186.53;;;32.83;18.22
37792;BME280;29527;55.766;37.570;2023-04-27T04:40:31;99197.16;;;33.11;18.08
37792;BME280;29527;55.766;37.570;2023-04-27T04:42:57;99191.66;;;33.70;17.64
37792;BME280;29527;55.766;37.570;2023-04-27T04:45:23;99189.81;;;34.33;16.80
37792;BME280;29527;55.766;37.570;2023-04-27T04:47:48;99183.63;;;34.80;16.33
37792;BME280;29527;55.766;37.570;2023-04-27T04:50:14;99190.53;;;35.34;16.10
37792;BME280;29527;55.766;37.570;2023-04-27T04:52:39;99182.28;;;35.90;15.08
37792;BME280;29527;55.766;37.570;2023-04-27T04:55:05;99189.53;;;36.33;14.16
37792;BME280;29527;55.766;37.570;2023-04-27T04:57:31;99175.47;;;36.39;13.98
37792;BME280;29527;55.766;37.570;2023-04-27T04:59:57;99191.44;;;36.61;13.76
37792;BME280;29527;55.766;37.570;2023-04-27T05:02:23;99181.88;;;36.76;13.75
37792;BME280;29527;55.766;37.570;2023-04-27T05:04:48;99189.59;;;36.93;13.17
37792;BME280;29527;55.766;37.570;2023-04-27T05:07:16;99197.72;;;37.03;13.61
37792;BME280;29527;55.766;37.570;2023-04-27T05:09:42;99195.94;;;37.30;13.29
37792;BME280;29527;55.766;37.570;2023-04-27T05:12:08;99202.94;;;37.82;12.87
37792;BME280;29527;55.766;37.570;2023-04-27T05:14:33;99208.09;;;38.38;12.15
37792;BME280;29527;55.766;37.570;2023-04-27T05:16:59;99203.53;;;38.77;12.13
37792;BME280;29527;55.766;37.570;2023-04-27T05:19:27;99217.19;;;39.05;12.08
37792;BME280;29527;55.766;37.570;2023-04-27T05:21:53;99199.25;;;39.24;11.92
37792;BME280;29527;55.766;37.570;2023-04-27T05:24:18;99191.78;;;39.55;11.54
37792;BME280;29527;55.766;37.570;2023-04-27T05:26:44;99197.34;;;40.11;11.26
37792;BME280;29527;55.766;37.570;2023-04-27T05:29:09;99200.59;;;40.43;10.84
37792;BME280;29527;55.766;37.570;2023-04-27T05:31:35;99198.00;;;40.59;10.68
37792;BME280;29527;55.766;37.570;2023-04-27T05:34:01;99195.69;;;41.04;10.19
37792;BME280;29527;55.766;37.570;2023-04-27T05:36:26;99178.09;;;41.16;10.25
37792;BME280;29527;55.766;37.570;2023-04-27T05:38:53;99182.91;;;41.61;9.85
37792;BME280;29527;55.766;37.570;2023-04-27T05:41:19;99202.81;;;42.31;9.18
37792;BME280;29527;55.766;37.570;2023-04-27T05:43:45;99198.38;;;42.83;9.01
37792;BME280;29527;55.766;37.570;2023-04-27T05:46:13;99206.50;;;43.58;8.62
37792;BME280;29527;55.766;37.570;2023-04-27T05:48:39;99196.06;;;43.74;8.24
37792;BME280;29527;55.766;37.570;2023-04-27T05:51:05;99200.69;;;44.15;7.91
37792;BME280;29527;55.766;37.570;2023-04-27T05:53:32;99196.13;;;44.46;7.19
37792;BME280;29527;55.766;37.570;2023-04-27T05:55:58;99188.41;;;44.43;7.25
37792;BME280;29527;55.766;37.570;2023-04-27T05:58:25;99187.16;;;44.40;7.81
37792;BME280;29527;55.766;37.570;2023-04-27T06:00:54;99200.44;;;45.15;6.88
37792;BME280;29527;55.766;37.570;2023-04-27T06:03:20;99190.75;;;45.36;6.33
37792;BME280;29527;55.766;37.570;2023-04-27T06:05:46;99184.72;;;45.37;6.39
37792;BME280;29527;55.766;37.570;2023-04-27T06:08:11;99187.09;;;45.35;6.39
37792;BME280;29527;55.766;37.570;2023-04-27T06:10:38;99205.53;;;45.29;6.46
37792;BME280;29527;55.766;37.570;2023-04-27T06:13:03;99187.78;;;45.09;6.36
37792;BME280;29527;55.766;37.570;2023-04-27T06:15:29;99197.59;;;45.15;6.28
37792;BME280;29527;55.766;37.570;2023-04-27T06:17:55;99201.28;;;45.39;6.47
37792;BME280;29527;55.766;37.570;2023-04-27T06:20:21;99202.69;;;45.49;6.22
37792;BME280;29527;55.766;37.570;2023-04-27T06:22:46;99211.47;;;45.90;6.01
37792;BME280;29527;55.766;37.570;2023-04-27T06:25:12;99205.53;;;46.22;6.43
37792;BME280;29527;55.766;37.570;2023-04-27T06:27:37;99210.28;;;45.68;6.40
37792;BME280;29527;55.766;37.570;2023-04-27T06:30:03;99216.84;;;45.72;6.21
37792;BME280;29527;55.766;37.570;2023-04-27T06:32:32;99210.56;;;46.09;5.93
37792;BME280;29527;55.766;37.570;2023-04-27T06:34:58;99207.31;;;46.34;6.04
37792;BME280;29527;55.766;37.570;2023-04-27T06:37:23;99191.94;;;46.62;6.06
37792;BME280;29527;55.766;37.570;2023-04-27T06:39:49;99210.34;;;47.10;5.92
37792;BME280;29527;55.766;37.570;2023-04-27T06:42:15;99206.09;;;47.68;5.39
37792;BME280;29527;55.766;37.570;2023-04-27T06:44:41;99206.94;;;48.25;4.95
37792;BME280;29527;55.766;37.570;2023-04-27T06:47:06;99195.84;;;48.76;4.97
37792;BME280;29527;55.766;37.570;2023-04-27T06:49:31;99195.78;;;48.61;4.59
37792;BME280;29527;55.766;37.570;2023-04-27T06:51:57;99220.69;;;48.23;4.96
37792;BME280;29527;55.766;37.570;2023-04-27T06:54:22;99211.06;;;47.41;5.04
37792;BME280;29527;55.766;37.570;2023-04-27T06:56:48;99212.22;;;47.33;5.04
37792;BME280;29527;55.766;37.570;2023-04-27T06:59:13;99208.09;;;47.68;5.26
37792;BME280;29527;55.766;37.570;2023-04-27T07:01:39;99198.13;;;48.41;5.11
37792;BME280;29527;55.766;37.570;2023-04-27T07:04:05;99198.78;;;49.01;4.82
37792;BME280;29527;55.766;37.570;2023-04-27T07:06:31;99197.28;;;49.47;4.34
37792;BME280;29527;55.766;37.570;2023-04-27T07:08:57;99207.78;;;49.25;4.48
37792;BME280;29527;55.766;37.570;2023-04-27T07:11:23;99203.34;;;49.27;4.13
37792;BME280;29527;55.766;37.570;2023-04-27T07:13:48;99202.50;;;49.20;4.56
37792;BME280;29527;55.766;37.570;2023-04-27T07:16:15;99197.66;;;49.20;4.43
37792;BME280;29527;55.766;37.570;2023-04-27T07:18:41;99218.81;;;49.55;4.14
37792;BME280;29527;55.766;37.570;2023-04-27T07:21:06;99200.53;;;49.56;4.12
37792;BME280;29527;55.766;37.570;2023-04-27T07:23:32;99200.97;;;49.51;4.01
37792;BME280;29527;55.766;37.570;2023-04-27T07:25:57;99204.19;;;49.53;3.85
37792;BME280;29527;55.766;37.570;2023-04-27T07:28:23;99193.56;;;49.14;4.03
37792;BME280;29527;55.766;37.570;2023-04-27T07:30:49;99202.84;;;49.04;4.13
37792;BME280;29527;55.766;37.570;2023-04-27T07:33:15;99200.88;;;49.26;4.43
37792;BME280;29527;55.766;37.570;2023-04-27T07:35:40;99200.53;;;49.49;3.67
37792;BME280;29527;55.766;37.570;2023-04-27T07:38:06;99209.47;;;49.55;4.04
37792;BME280;29527;55.766;37.570;2023-04-27T07:40:32;99207.38;;;49.16;3.77
37792;BME280;29527;55.766;37.570;2023-04-27T07:42:59;99205.75;;;49.29;3.84
37792;BME280;29527;55.766;37.570;2023-04-27T07:45:24;99214.75;;;49.53;3.82
37792;BME280;29527;55.766;37.570;2023-04-27T07:47:58;99217.97;;;49.33;3.94
37792;BME280;29527;55.766;37.570;2023-04-27T07:50:28;99208.06;;;48.87;4.20
37792;BME280;29527;55.766;37.570;2023-04-27T07:52:54;99182.75;;;48.49;4.17
37792;BME280;29527;55.766;37.570;2023-04-27T07:55:20;99207.78;;;48.33;4.39
37792;BME280;29527;55.766;37.570;2023-04-27T07:57:49;99221.28;;;47.98;4.34
37792;BME280;29527;55.766;37.570;2023-04-27T08:00:15;99221.00;;;47.62;4.57
37792;BME280;29527;55.766;37.570;2023-04-27T08:02:40;99209.50;;;46.75;4.91
37792;BME280;29527;55.766;37.570;2023-04-27T08:05:06;99224.84;;;45.70;5.40
37792;BME280;29527;55.766;37.570;2023-04-27T08:07:33;99219.84;;;44.09;6.18
37792;BME280;29527;55.766;37.570;2023-04-27T08:09:58;99203.25;;;41.71;7.38
37792;BME280;29527;55.766;37.570;2023-04-27T08:12:24;99204.03;;;39.24;9.43
37792;BME280;29527;55.766;37.570;2023-04-27T08:14:50;99193.50;;;36.69;11.06
37792;BME280;29527;55.766;37.570;2023-04-27T08:17:16;99207.81;;;34.60;12.89
37792;BME280;29527;55.766;37.570;2023-04-27T08:19:46;99211.19;;;32.85;14.47
37792;BME280;29527;55.766;37.570;2023-04-27T08:22:12;99205.03;;;31.30;15.75
37792;BME280;29527;55.766;37.570;2023-04-27T08:24:37;99215.53;;;30.23;17.27
37792;BME280;29527;55.766;37.570;2023-04-27T08:27:04;99208.06;;;29.37;18.16
37792;BME280;29527;55.766;37.570;2023-04-27T08:29:30;99198.84;;;28.39;19.24
37792;BME280;29527;55.766;37.570;2023-04-27T08:31:58;99211.28;;;27.80;19.40
37792;BME280;29527;55.766;37.570;2023-04-27T08:34:24;99202.72;;;27.25;20.52
37792;BME280;29527;55.766;37.570;2023-04-27T08:36:50;99190.53;;;26.87;20.36
37792;BME280;29527;55.766;37.570;2023-04-27T08:39:16;99193.16;;;26.53;20.63
37792;BME280;29527;55.766;37.570;2023-04-27T08:41:42;99179.31;;;26.18;20.99
37792;BME280;29527;55.766;37.570;2023-04-27T08:44:08;99205.66;;;26.07;21.33
37792;BME280;29527;55.766;37.570;2023-04-27T08:46:36;99200.56;;;25.87;21.99
37792;BME280;29527;55.766;37.570;2023-04-27T08:49:02;99209.41;;;25.77;22.24
37792;BME280;29527;55.766;37.570;2023-04-27T08:51:28;99214.19;;;25.58;22.66
37792;BME280;29527;55.766;37.570;2023-04-27T08:53:55;99208.28;;;25.43;22.93
37792;BME280;29527;55.766;37.570;2023-04-27T08:56:23;99204.72;;;25.42;23.53
37792;BME280;29527;55.766;37.570;2023-04-27T08:58:53;99202.25;;;25.53;22.49
37792;BME280;29527;55.766;37.570;2023-04-27T09:01:19;99212.47;;;25.45;22.36
37792;BME280;29527;55.766;37.570;2023-04-27T09:03:46;99212.09;;;25.42;22.71
37792;BME280;29527;55.766;37.570;2023-04-27T09:06:13;99211.75;;;25.38;22.84
37792;BME280;29527;55.766;37.570;2023-04-27T09:08:47;99200.28;;;25.29;23.06
37792;BME280;29527;55.766;37.570;2023-04-27T09:11:14;99219.81;;;25.21;23.71
37792;BME280;29527;55.766;37.570;2023-04-27T09:13:42;99221.84;;;25.14;24.76
37792;BME280;29527;55.766;37.570;2023-04-27T09:16:12;99214.31;;;25.09;24.90
37792;BME280;29527;55.766;37.570;2023-04-27T09:18:42;99218.09;;;24.96;25.03
37792;BME280;29527;55.766;37.570;2023-04-27T09:21:08;99216.91;;;24.92;25.25
37792;BME280;29527;55.766;37.570;2023-04-27T09:23:36;99208.41;;;24.82;24.88
37792;BME280;29527;55.766;37.570;2023-04-27T09:26:06;99216.78;;;24.68;25.22
37792;BME280;29527;55.766;37.570;2023-04-27T09:28:38;99211.41;;;24.61;26.19
37792;BME280;29527;55.766;37.570;2023-04-27T09:31:05;99210.13;;;24.45;26.05
37792;BME280;29527;55.766;37.570;2023-04-27T09:33:34;99220.94;;;24.40;25.57
37792;BME280;29527;55.766;37.570;2023-04-27T09:36:03;99216.84;;;24.31;25.95
37792;BME280;29527;55.766;37.570;2023-04-27T09:38:29;99201.94;;;24.08;25.93
37792;BME280;29527;55.766;37.570;2023-04-27T09:40:56;99207.91;;;23.98;26.49
37792;BME280;29527;55.766;37.570;2023-04-27T09:43:22;99198.75;;;23.92;26.52
37792;BME280;29527;55.766;37.570;2023-04-27T09:45:49;99204.22;;;24.11;26.94
37792;BME280;29527;55.766;37.570;2023-04-27T09:48:16;99199.47;;;24.06;26.42
37792;BME280;29527;55.766;37.570;2023-04-27T09:50:44;99206.56;;;23.89;26.78
37792;BME280;29527;55.766;37.570;2023-04-27T09:53:12;99211.63;;;23.85;27.39
37792;BME280;29527;55.766;37.570;2023-04-27T10:04:15;99202.72;;;24.15;25.56
37792;BME280;29527;55.766;37.570;2023-04-27T10:09:19;99190.47;;;24.18;25.40
37792;BME280;29527;55.766;37.570;2023-04-27T10:11:48;99202.41;;;24.42;26.04
37792;BME280;29527;55.766;37.570;2023-04-27T10:14:25;99185.59;;;24.39;25.93
37792;BME280;29527;55.766;37.570;2023-04-27T10:16:54;99184.22;;;24.48;25.45
37792;BME280;29527;55.766;37.570;2023-04-27T10:19:21;99202.53;;;24.47;25.73
37792;BME280;29527;55.766;37.570;2023-04-27T10:21:58;99212.88;;;24.45;26.03
37792;BME280;29527;55.766;37.570;2023-04-27T10:24:37;99180.66;;;24.29;26.43
37792;BME280;29527;55.766;37.570;2023-04-27T10:27:05;99201.94;;;24.45;26.09
37792;BME280;29527;55.766;37.570;2023-04-27T10:29:43;99203.75;;;24.51;25.51
37792;BME280;29527;55.766;37.570;2023-04-27T10:32:12;99209.22;;;24.33;25.13
37792;BME280;29527;55.766;37.570;2023-04-27T10:34:39;99198.53;;;24.13;25.50
37792;BME280;29527;55.766;37.570;2023-04-27T10:37:09;99197.88;;;24.17;25.20
37792;BME280;29527;55.766;37.570;2023-04-27T10:39:40;99197.72;;;24.12;24.87
37792;BME280;29527;55.766;37.570;2023-04-27T10:42:07;99210.50;;;23.93;25.39
37792;BME280;29527;55.766;37.570;2023-04-27T10:44:34;99205.25;;;23.73;25.77
37792;BME280;29527;55.766;37.570;2023-04-27T10:47:11;99213.66;;;23.71;25.65
37792;BME280;29527;55.766;37.570;2023-04-27T10:49:38;99208.41;;;23.51;26.13
37792;BME280;29527;55.766;37.570;2023-04-27T10:52:04;99201.38;;;23.36;26.68
37792;BME280;29527;55.766;37.570;2023-04-27T10:54:31;99204.41;;;23.28;26.93
37792;BME280;29527;55.766;37.570;2023-04-27T10:57:08;99207.91;;;23.35;26.68
37792;BME280;29527;55.766;37.570;2023-04-27T10:59:50;99206.03;;;23.36;26.86
37792;BME280;29527;55.766;37.570;2023-04-27T11:02:16;99201.81;;;23.33;26.88
37792;BME280;29527;55.766;37.570;2023-04-27T11:04:42;99205.16;;;23.61;27.50
37792;BME280;29527;55.766;37.570;2023-04-27T11:07:08;99207.09;;;23.98;27.37
37792;BME280;29527;55.766;37.570;2023-04-27T11:09:35;99217.75;;;24.06;27.15
37792;BME280;29527;55.766;37.570;2023-04-27T11:12:06;99190.16;;;23.89;26.78
37792;BME280;29527;55.766;37.570;2023-04-27T11:14:34;99207.22;;;23.84;27.33
37792;BME280;29527;55.766;37.570;2023-04-27T11:16:59;99222.41;;;23.80;27.50
37792;BME280;29527;55.766;37.570;2023-04-27T11:19:25;99235.16;;;23.68;27.87
37792;BME280;29527;55.766;37.570;2023-04-27T11:21:51;99232.34;;;23.23;28.76
37792;BME280;29527;55.766;37.570;2023-04-27T11:24:16;99237.47;;;22.81;29.57
37792;BME280;29527;55.766;37.570;2023-04-27T11:26:43;99252.72;;;22.43;30.53
37792;BME280;29527;55.766;37.570;2023-04-27T11:29:15;99252.41;;;22.19;31.76
37792;BME280;29527;55.766;37.570;2023-04-27T11:31:45;99260.41;;;21.94;32.83
37792;BME280;29527;55.766;37.570;2023-04-27T11:34:16;99270.72;;;21.72;32.50
37792;BME280;29527;55.766;37.570;2023-04-27T11:36:42;99266.69;;;21.41;32.89
37792;BME280;29527;55.766;37.570;2023-04-27T11:39:15;99276.13;;;21.31;33.05
37792;BME280;29527;55.766;37.570;2023-04-27T11:41:42;99257.91;;;21.25;33.68
37792;BME280;29527;55.766;37.570;2023-04-27T11:44:12;99266.06;;;21.39;33.79
37792;BME280;29527;55.766;37.570;2023-04-27T11:46:38;99263.56;;;21.57;33.67
37792;BME280;29527;55.766;37.570;2023-04-27T11:49:06;99255.19;;;21.59;33.23
37792;BME280;29527;55.766;37.570;2023-04-27T11:51:33;99256.63;;;21.61;33.36
37792;BME280;29527;55.766;37.570;2023-04-27T11:54:04;99251.00;;;21.49;33.57
37792;BME280;29527;55.766;37.570;2023-04-27T11:56:43;99230.88;;;21.30;33.75
37792;BME280;29527;55.766;37.570;2023-04-27T11:59:20;99241.75;;;21.50;34.21
37792;BME280;29527;55.766;37.570;2023-04-27T12:01:47;99244.47;;;21.44;33.70
37792;BME280;29527;55.766;37.570;2023-04-27T12:04:13;99231.94;;;21.36;33.37
37792;BME280;29527;55.766;37.570;2023-04-27T12:06:38;99230.66;;;21.32;33.53
37792;BME280;29527;55.766;37.570;2023-04-27T12:09:04;99241.97;;;21.35;33.05
37792;BME280;29527;55.766;37.570;2023-04-27T12:11:29;99235.47;;;21.36;33.13
37792;BME280;29527;55.766;37.570;2023-04-27T12:13:56;99234.44;;;21.44;32.65
37792;BME280;29527;55.766;37.570;2023-04-27T12:16:21;99221.03;;;21.56;32.48
37792;BME280;29527;55.766;37.570;2023-04-27T12:18:48;99220.63;;;21.66;32.04
37792;BME280;29527;55.766;37.570;2023-04-27T12:21:14;99218.97;;;21.72;31.64
37792;BME280;29527;55.766;37.570;2023-04-27T12:23:40;99222.69;;;21.84;31.66
37792;BME280;29527;55.766;37.570;2023-04-27T12:26:06;99197.56;;;21.69;31.29
37792;BME280;29527;55.766;37.570;2023-04-27T12:28:32;99227.31;;;21.77;31.11
37792;BME280;29527;55.766;37.570;2023-04-27T12:30:57;99205.31;;;21.58;31.42
37792;BME280;29527;55.766;37.570;2023-04-27T12:33:23;99218.31;;;21.49;31.76
37792;BME280;29527;55.766;37.570;2023-04-27T12:35:48;99203.63;;;21.44;32.11
37792;BME280;29527;55.766;37.570;2023-04-27T12:38:14;99212.03;;;21.35;32.07
37792;BME280;29527;55.766;37.570;2023-04-27T12:40:40;99224.41;;;21.31;32.51
37792;BME280;29527;55.766;37.570;2023-04-27T12:43:07;99208.25;;;21.03;32.73
37792;BME280;29527;55.766;37.570;2023-04-27T12:45:33;99218.50;;;21.01;33.07
37792;BME280;29527;55.766;37.570;2023-04-27T12:47:58;99200.06;;;20.96;32.79
37792;BME280;29527;55.766;37.570;2023-04-27T12:50:24;99213.66;;;20.96;32.24
37792;BME280;29527;55.766;37.570;2023-04-27T12:52:49;99204.88;;;20.94;32.64
37792;BME280;29527;55.766;37.570;2023-04-27T12:55:15;99199.25;;;20.96;33.09
37792;BME280;29527;55.766;37.570;2023-04-27T12:57:41;99204.47;;;21.04;32.56
37792;BME280;29527;55.766;37.570;2023-04-27T13:00:07;99209.72;;;21.05;32.14